Peotone Weather

Nearby METAR Reports

 

KIGQ - Lansing, Illinois, USA
Distance from station: NE 19mi, 30km
Updated: Sat, 13-Apr-2024 5:15pm CDT
Clear
Clear
 Wind from SSW
Wind: SSW 17 mph , 28 km/h, Gust: 23 mph , 37 km/h
Temperature: 70°F , 21°C
Dew Point: 45°F , 7°C
Humidity: 40%
Barometer: 29.96 inHg , 1014.6 hPa
Clouds: Clear
Visibility: 10 miles , 16 km
2024/04/13 22:15 KIGQ 132215Z AUTO 21015G20KT 10SM CLR 21/07 A2996 RMK AO2 T02050066
KIKK - Kankakee, Illinois, USA
Distance from station: S 19mi, 30km
Updated: Sat, 13-Apr-2024 5:15pm CDT
Clear
Clear
 Wind from SSW
Wind: SSW 13 mph , 20 km/h, Gust: 18 mph , 30 km/h
Temperature: 72°F , 22°C
Dew Point: 34°F , 1°C
Humidity: 25%
Barometer: 29.98 inHg , 1015.2 hPa
Clouds: Clear
Visibility: 10 miles , 16 km
2024/04/13 22:15 KIKK 132215Z AUTO 20011G16KT 10SM CLR 22/01 A2998 RMK AO2 T02150012 PWINO
 
KSJC - Joliet, Illinois, USA
Distance from station: WNW 24mi, 38km
Updated: Sat, 13-Apr-2024 4:53pm CDT
Overcast
Overcast
 Wind from SE
Wind: SE 12 mph , 19 km/h
Temperature: 54°F , 12°C
Dew Point: 41°F , 5°C
Humidity: 63%
Barometer: 29.92 inHg , 1013.2 hPa
Clouds: Overcast
Visibility: 10 miles , 16 km
Cloud details: Few Clouds 1400 ft
Mostly cloudy 3700 ft
Overcast 8000 ft
2024/04/13 21:53 KSJC 132153Z 13010KT 10SM FEW014 BKN037 OVC080 12/05 A2992 RMK AO2 SLP132 T01170050
KLOT - Romeoville, Illinois, USA
Distance from station: NW 26mi, 41km
Updated: Sat, 13-Apr-2024 4:45pm CDT
Clear
Clear
 Wind from SSW
Wind: SSW 13 mph , 20 km/h
Temperature: 70°F , 21°C
Dew Point: 37°F , 3°C
Humidity: 31%
Barometer: 29.96 inHg , 1014.6 hPa
Clouds: Clear
Visibility: 10 miles , 16 km
2024/04/13 21:45 KLOT 132145Z 21011KT 10SM CLR 21/03 A2996
 
KMDW - Midway Airport Chicago, Illinois, USA
Distance from station: N 31mi, 50km
Updated: Sat, 13-Apr-2024 4:53pm CDT
Few Clouds
Few Clouds
 Wind from SW
Wind: SW 13 mph , 20 km/h, Gust: 28 mph , 44 km/h
Temperature: 72°F , 22°C
Dew Point: 36°F , 2°C
Humidity: 27%
Barometer: 29.94 inHg , 1013.9 hPa
Clouds: Few Clouds
Visibility: 10 miles , 16 km
Cloud details: Few Clouds 25000 ft
2024/04/13 21:53 KMDW 132153Z 22011G24KT 10SM FEW250 22/02 A2994 RMK AO2 SLP137 T02170017 $
KC09 - Morris, Illinois, USA
Distance from station: W 34mi, 54km
Updated: Sat, 13-Apr-2024 5:15pm CDT
Clear
Clear
 Wind from SSW
Wind: SSW 13 mph , 20 km/h
Temperature: 73°F , 23°C
Dew Point: 39°F , 4°C
Humidity: 29%
Barometer: 29.93 inHg , 1013.5 hPa
Clouds: Clear
Visibility: 10 miles , 16 km
2024/04/13 22:15 KC09 132215Z AUTO 20011KT 10SM CLR 23/04 A2993 RMK AO2 T02260039

Metar display script from Saratoga-Weather.org